Etusivu
METAR-TAF:

METAR-TAF

Lentoasemat :

Ouagadougou, Burkina Faso

Ouagadougoun kansainvälinen lentoasema

Leveyspiiri: 12-21N, Pituuspiiri: 001-31W, korkeus merenpinnasta: 316 m

Tämänhetkinen sää

Tämä raportti tehtiin 1 tunti ja 54 minuuttia sitten, kello 08.00 UTC
Tuuli 7 kn lännestä/lounaasta
Lämpötila 30°C
Kosteus 62%
Ilmanpaine 1014 hPa
Näkyvyys: 8000 m

METAR: DFFD 220800Z 24007KT 8000 NSC 30/22 Q1014 NOSIG

Aika: 09:54 (09:54 UTC)

Sääennuste

Tämä raportti tehtiin 4 tuntia ja 54 minuuttia sitten, kello 05.00 UTC
Ennuste voimassa 22. päivästä klo 06 UTC - 23. päivään klo 12 UTC
Tuuli 8 kn eri suunnista
Näkyvyys 10 km tai enemmän
ei pilviä alle 1500 m:ssä eikä cumulonimbus-pilviä

TAF: DFFD 220500Z 2206/2312 VRB08KT CAVOK

Säähavainnot ja -ennusteet yli 4000 lentoasemalta (METAR- ja TAF-raportit).

Käytössä olevat sääasemat on merkitty karttaan keltaisilla ja punaisilla pisteillä.

Aseta hiiri pisteen päälle nähdäksesi sääaseman nimen.

Klikkaa sitten nähdäksesi säähavainnot ja -ennusteet.

Kartan vaihtaminen: klikkaa mustalla rastilla varustettuja vihreitä pisteitä, niin voit zoomata sisään; viivalla varustettua vihreää pistettä, niin voit zoomata ulos tai vihreitä nuolia, niin pääset viereisille kartoille.


METAR-TAF: